Time;durP1;ratioP1;P1;durP2;ratioP2;P2;SDS_P1;SDS_P2;PMS_P1;PMS_P2;Temp;Humidity;BMP_temperature;BMP_pressure;BME280_temperature;BME280_humidity;BME280_pressure;Samples;Min_cycle;Max_cycle;Signal;HPM_P1;HPM_P2
2021/09/27 00:00:43;;;;;;;5.93;3.72;;;;;;;34.04;18.59;94797.00;5043668;28;20061;-44
2021/09/27 00:03:11;;;;;;;3.83;3.53;;;;;;;33.79;18.85;94797.59;5055489;28;20049;-42
2021/09/27 00:05:38;;;;;;;5.03;3.50;;;;;;;34.05;18.87;94805.88;5055543;28;20359;-43
2021/09/27 00:08:06;;;;;;;4.88;3.33;;;;;;;33.95;19.00;94805.75;5054855;28;20049;-43
2021/09/27 00:10:41;;;;;;;3.65;3.28;;;;;;;34.00;19.06;94805.22;5055533;28;20428;-43
2021/09/27 00:13:09;;;;;;;5.78;3.45;;;;;;;33.93;18.90;94804.66;5037560;28;20063;-43
2021/09/27 00:15:41;;;;;;;5.30;3.53;;;;;;;33.98;18.98;94804.13;5055306;28;20052;-44
2021/09/27 00:18:09;;;;;;;4.57;3.15;;;;;;;33.71;18.93;94797.00;5054137;28;20041;-43
2021/09/27 00:20:42;;;;;;;5.78;3.35;;;;;;;33.98;18.75;94796.00;5055299;28;20056;-49
2021/09/27 00:23:10;;;;;;;4.90;3.10;;;;;;;34.26;18.40;94797.97;5054456;28;20059;-43
2021/09/27 00:25:38;;;;;;;8.02;3.63;;;;;;;33.70;19.41;94805.56;5055133;28;20044;-44
2021/09/27 00:28:05;;;;;;;6.60;3.78;;;;;;;34.01;18.86;94795.13;5054402;28;20048;-43
2021/09/27 00:30:33;;;;;;;5.55;3.33;;;;;;;33.72;19.04;94789.63;5040756;28;20364;-48
2021/09/27 00:33:00;;;;;;;3.72;3.30;;;;;;;33.71;19.37;94794.31;5033746;28;20333;-43
2021/09/27 00:35:31;;;;;;;5.93;3.17;;;;;;;33.72;19.39;94793.13;5033916;28;20352;-46
2021/09/27 00:37:58;;;;;;;4.73;3.40;;;;;;;33.69;18.97;94787.78;5049499;28;20056;-49
2021/09/27 00:40:29;;;;;;;4.47;3.80;;;;;;;33.55;19.30;94790.81;5054765;28;20332;-42
2021/09/27 00:42:57;;;;;;;9.70;3.95;;;;;;;33.59;19.34;94794.25;5053923;28;20055;-44
2021/09/27 00:45:28;;;;;;;4.57;3.25;;;;;;;33.65;19.25;94787.13;5054581;28;20048;-44
2021/09/27 00:47:55;;;;;;;7.00;3.35;;;;;;;33.48;19.24;94778.22;5054084;28;20518;-45
2021/09/27 00:50:25;;;;;;;4.15;3.65;;;;;;;33.61;19.18;94775.59;5054532;28;20049;-52
2021/09/27 00:52:52;;;;;;;4.20;3.28;;;;;;;33.54;19.55;94775.75;5039721;28;20055;-52
2021/09/27 00:55:21;;;;;;;5.28;3.65;;;;;;;33.41;19.21;94778.41;5054784;28;20379;-50
2021/09/27 00:57:49;;;;;;;6.45;3.42;;;;;;;33.36;19.24;94770.78;5054091;28;20048;-44
2021/09/27 01:00:19;;;;;;;3.75;3.28;;;;;;;33.61;19.35;94775.59;5045831;28;20060;-44
2021/09/27 01:02:46;;;;;;;3.63;3.08;;;;;;;33.31;19.48;94773.94;5053358;28;20451;-44
2021/09/27 01:05:17;;;;;;;3.40;3.10;;;;;;;33.48;19.33;94761.19;5054482;28;20049;-49
2021/09/27 01:07:52;;;;;;;4.32;3.20;;;;;;;33.60;19.00;94768.66;5048427;28;20049;-44
2021/09/27 01:10:34;;;;;;;4.82;3.63;;;;;;;33.58;19.09;94771.78;5054282;28;20053;-45
2021/09/27 01:13:18;;;;;;;3.78;3.00;;;;;;;33.44;19.06;94761.28;5053451;28;20455;-45
2021/09/27 01:16:10;;;;;;;4.25;3.25;;;;;;;33.54;18.96;94762.22;5054352;28;20363;-44
2021/09/27 01:18:43;;;;;;;3.22;2.92;;;;;;;33.40;19.22;94757.91;5053654;28;20041;-44
2021/09/27 01:21:40;;;;;;;3.40;3.10;;;;;;;33.28;19.24;94750.41;5054394;28;20045;-51
2021/09/27 01:24:18;;;;;;;3.90;3.15;;;;;;;33.25;19.62;94756.69;5050832;28;20057;-47
2021/09/27 01:27:03;;;;;;;6.70;3.22;;;;;;;33.40;19.38;94755.19;5035896;28;20041;-42
2021/09/27 01:29:52;;;;;;;4.03;3.58;;;;;;;33.40;19.20;94757.91;5053755;28;20044;-43
2021/09/27 01:32:40;;;;;;;4.10;3.20;;;;;;;33.31;19.18;94757.69;5053592;28;20060;-42
2021/09/27 01:35:28;;;;;;;7.45;3.60;;;;;;;33.21;19.83;94756.75;5053990;28;20045;-43
2021/09/27 01:38:07;;;;;;;4.90;2.92;;;;;;;33.22;19.46;94760.22;5053709;28;20041;-43
2021/09/27 01:40:47;;;;;;;4.57;3.35;;;;;;;33.35;19.67;94758.41;5054004;28;20045;-65
2021/09/27 01:43:19;;;;;;;4.20;3.30;;;;;;;33.43;19.09;94757.06;5036747;28;20049;-56
2021/09/27 01:46:07;;;;;;;6.38;3.58;;;;;;;33.14;19.97;94764.28;5053845;28;20045;-44
2021/09/27 01:49:07;;;;;;;8.05;3.58;;;;;;;33.40;19.19;94763.31;5039051;28;20064;-43
2021/09/27 01:51:44;;;;;;;6.47;3.38;;;;;;;33.07;19.84;94766.00;5040204;28;20045;-44
2021/09/27 01:54:33;;;;;;;5.32;3.63;;;;;;;33.11;19.46;94766.66;5040226;28;20052;-45
2021/09/27 01:57:26;;;;;;;4.13;3.72;;;;;;;33.04;19.80;94774.16;5039937;28;20389;-43
2021/09/27 02:00:05;;;;;;;5.50;3.50;;;;;;;33.42;18.84;94760.94;5039622;28;20371;-45
2021/09/27 02:02:54;;;;;;;5.53;3.58;;;;;;;33.24;19.29;94768.69;5058065;28;20052;-44
2021/09/27 02:05:39;;;;;;;6.72;3.72;;;;;;;33.11;19.40;94763.97;5057379;28;20045;-46
2021/09/27 02:08:24;;;;;;;6.00;3.70;;;;;;;33.01;19.60;94762.22;5039657;28;20067;-46
2021/09/27 02:11:06;;;;;;;6.30;3.55;;;;;;;33.01;19.76;94762.22;5057326;28;20052;-43
2021/09/27 02:13:42;;;;;;;8.25;3.90;;;;;;;33.28;19.44;94755.81;5039747;28;20053;-43
2021/09/27 02:16:21;;;;;;;5.20;3.55;;;;;;;33.16;19.19;94751.09;5038101;28;20047;-43
2021/09/27 02:18:58;;;;;;;3.78;3.38;;;;;;;33.07;19.70;94755.16;5040060;28;20048;-43
2021/09/27 02:21:31;;;;;;;4.38;3.42;;;;;;;33.22;19.46;94749.41;5057880;28;20057;-43
2021/09/27 02:24:26;;;;;;;6.05;3.85;;;;;;;33.06;19.60;94748.22;5039496;28;20049;-44
2021/09/27 02:26:53;;;;;;;5.97;3.58;;;;;;;32.84;19.91;94744.47;5056086;28;20056;-44
2021/09/27 02:29:21;;;;;;;6.53;3.83;;;;;;;33.25;19.16;94748.56;5039078;28;20049;-43
2021/09/27 02:32:03;;;;;;;5.43;4.07;;;;;;;32.98;19.36;94748.78;5055946;28;20060;-43
2021/09/27 02:34:45;;;;;;;4.60;3.92;;;;;;;32.89;19.75;94748.59;5055799;28;20045;-43
2021/09/27 02:37:11;;;;;;;;;;;;;;;33.04;19.61;94747.84;5039642;28;20048;-45
2021/09/27 02:39:58;;;;;;;5.97;4.28;;;;;;;32.87;19.90;94751.72;5056371;28;19916;-43
2021/09/27 02:42:51;;;;;;;6.43;4.18;;;;;;;32.96;19.76;94751.91;5039330;28;20052;-51
2021/09/27 02:45:19;;;;;;;7.25;3.97;;;;;;;32.84;19.84;94757.22;5041218;28;20083;-44
2021/09/27 02:47:52;;;;;;;7.32;4.10;;;;;;;32.62;20.03;94754.94;5052206;28;20049;-52
2021/09/27 02:50:27;;;;;;;7.97;4.10;;;;;;;32.50;20.12;94766.38;5019671;28;20053;-55
2021/09/27 02:52:56;;;;;;;4.93;3.83;;;;;;;32.62;19.78;94756.88;5038971;28;20052;-48
2021/09/27 02:55:54;;;;;;;7.70;4.28;;;;;;;32.30;20.33;94758.31;5056777;28;20355;-45
2021/09/27 02:58:44;;;;;;;7.63;4.35;;;;;;;32.24;20.44;94756.44;4995464;28;20053;-48
2021/09/27 03:01:34;;;;;;;5.13;4.25;;;;;;;32.26;20.35;94762.22;5055995;28;20056;-43
2021/09/27 03:04:20;;;;;;;7.72;3.92;;;;;;;32.34;20.22;94750.88;5056295;28;20375;-55
2021/09/27 03:06:53;;;;;;;6.32;4.13;;;;;;;32.24;20.19;94754.50;5055938;28;20045;-43
2021/09/27 03:10:21;;;;;;;5.35;3.70;;;;;;;32.22;20.00;94752.22;5056047;28;20052;-52
2021/09/27 03:13:12;;;;;;;4.95;3.80;;;;;;;32.23;20.49;94763.78;4998693;28;20060;-45
2021/09/27 03:16:09;;;;;;;5.10;4.15;;;;;;;31.84;20.63;94751.78;5038771;28;20053;-44
2021/09/27 03:18:40;;;;;;;6.75;4.75;;;;;;;31.98;20.69;94747.28;5037166;28;20049;-48
2021/09/27 03:21:10;;;;;;;7.50;5.33;;;;;;;31.98;20.50;94749.97;5038571;28;20048;-54
2021/09/27 03:23:58;;;;;;;6.28;4.45;;;;;;;32.19;20.36;94746.88;5055579;28;20291;-53
2021/09/27 03:27:01;;;;;;;7.50;5.47;;;;;;;31.81;20.40;94752.59;5036131;28;20049;-44
2021/09/27 03:29:55;;;;;;;9.02;5.32;;;;;;;31.53;21.17;94745.72;5032618;28;20045;-52
2021/09/27 03:32:42;;;;;;;7.57;4.70;;;;;;;31.48;20.86;94753.50;5018422;28;20448;-44
2021/09/27 03:35:29;;;;;;;8.40;5.05;;;;;;;31.64;20.57;94748.22;5055700;28;20056;-49
2021/09/27 03:38:41;;;;;;;6.68;4.20;;;;;;;31.47;21.05;94741.19;5037751;28;20470;-51
2021/09/27 03:41:24;;;;;;;5.53;4.55;;;;;;;31.79;20.56;94737.97;4997344;28;20058;-50
2021/09/27 03:43:57;;;;;;;8.27;4.60;;;;;;;31.19;21.19;94729.66;4997667;28;20054;-55
2021/09/27 03:46:41;;;;;;;6.22;4.60;;;;;;;31.72;20.91;94730.75;5041467;28;20052;-43
2021/09/27 03:49:39;;;;;;;6.38;4.20;;;;;;;31.39;20.98;94728.97;5037413;28;20044;-44
2021/09/27 03:52:23;;;;;;;8.57;4.68;;;;;;;31.34;20.95;94727.50;5055632;28;20059;-52
2021/09/27 03:54:54;;;;;;;8.23;4.68;;;;;;;31.56;20.81;94722.53;5037463;28;20051;-55
2021/09/27 03:58:08;;;;;;;6.53;5.22;;;;;;;31.49;21.01;94733.44;5054169;28;20352;-44
2021/09/27 04:00:43;;;;;;;7.60;5.50;;;;;;;31.67;20.55;94733.91;5039628;28;20064;-44
2021/09/27 04:03:36;;;;;;;9.82;4.57;;;;;;;31.63;20.95;94714.28;5054298;28;20045;-49
2021/09/27 04:06:06;;;;;;;6.43;4.97;;;;;;;31.44;21.09;94717.69;5053280;28;20048;-46
2021/09/27 04:08:59;;;;;;;8.57;5.47;;;;;;;31.70;20.87;94722.25;5053773;28;20052;-45
2021/09/27 04:11:29;;;;;;;14.27;5.50;;;;;;;31.99;20.73;94738.75;5040963;28;20053;-47
2021/09/27 04:14:15;;;;;;;7.15;4.72;;;;;;;31.98;20.41;94748.03;5035303;28;20053;-47
2021/09/27 04:17:23;;;;;;;10.55;5.43;;;;;;;32.00;20.61;94736.81;5030319;28;20049;-49
2021/09/27 04:19:54;;;;;;;7.45;5.20;;;;;;;32.08;20.21;94736.28;5033391;28;20048;-50
2021/09/27 04:22:41;;;;;;;5.75;4.63;;;;;;;32.12;20.15;94736.22;5053428;28;20057;-52
2021/09/27 04:25:22;;;;;;;6.80;4.68;;;;;;;32.43;20.40;94734.84;5035679;28;20045;-54
2021/09/27 04:28:14;;;;;;;9.23;5.10;;;;;;;32.77;19.71;94741.84;5052529;28;20052;-45
2021/09/27 04:31:02;;;;;;;7.07;5.22;;;;;;;33.29;19.10;94732.97;5046944;28;20060;-44
2021/09/27 04:33:41;;;;;;;10.50;5.38;;;;;;;33.20;19.64;94736.28;5049777;28;20052;-47
2021/09/27 04:36:23;;;;;;;14.30;5.88;;;;;;;32.46;20.33;94734.00;5053971;28;20051;-46
2021/09/27 04:38:53;;;;;;;12.70;5.93;;;;;;;32.36;20.42;94729.56;5041787;28;20052;-45
2021/09/27 04:41:32;;;;;;;13.07;6.13;;;;;;;32.34;20.27;94731.19;5034185;28;20056;-46
2021/09/27 04:44:37;;;;;;;10.10;5.70;;;;;;;32.33;20.35;94714.19;5017660;28;20476;-46
2021/09/27 04:47:42;;;;;;;10.23;5.65;;;;;;;32.58;20.20;94718.31;5039809;28;20052;-49
2021/09/27 04:50:33;;;;;;;8.93;5.57;;;;;;;32.62;20.36;94735.25;5031641;28;20048;-50
2021/09/27 04:53:15;;;;;;;9.85;5.55;;;;;;;32.62;20.74;94746.06;5054062;28;20108;-49
2021/09/27 04:56:31;;;;;;;5.88;4.97;;;;;;;32.58;20.84;94750.78;5054606;28;20061;-46
2021/09/27 04:59:10;;;;;;;7.30;5.38;;;;;;;32.87;20.32;94750.97;5010560;28;20041;-48
2021/09/27 05:02:10;;;;;;;10.38;5.30;;;;;;;32.71;20.80;94767.91;5034541;28;20069;-47
2021/09/27 05:04:52;;;;;;;9.05;5.55;;;;;;;33.10;20.65;94765.16;5045291;28;20363;-47
2021/09/27 05:08:00;;;;;;;10.32;5.32;;;;;;;33.24;20.36;94768.69;5045400;28;20048;-46
2021/09/27 05:10:36;;;;;;;7.55;5.43;;;;;;;33.07;19.98;94774.13;5021218;28;20053;-47
2021/09/27 05:13:22;;;;;;;12.65;5.93;;;;;;;33.09;20.23;94789.94;5034343;28;20056;-46
2021/09/27 05:15:49;;;;;;;8.02;5.45;;;;;;;33.13;20.27;94770.91;5037414;28;20056;-46
2021/09/27 05:18:28;;;;;;;7.85;6.20;;;;;;;32.81;20.43;94775.06;5053711;28;20440;-45
2021/09/27 05:21:32;;;;;;;9.88;6.00;;;;;;;33.16;19.84;94778.94;5036958;28;20057;-46
2021/09/27 05:24:34;;;;;;;11.40;5.70;;;;;;;32.83;20.18;94777.34;5051024;28;20075;-45
2021/09/27 05:27:19;;;;;;;7.15;5.60;;;;;;;33.02;19.95;94779.25;5058515;28;20056;-46
2021/09/27 05:29:58;;;;;;;6.55;5.65;;;;;;;33.05;20.55;94784.59;5056763;28;20052;-46
2021/09/27 05:32:45;;;;;;;9.85;5.82;;;;;;;33.37;19.80;94772.31;5058497;28;20052;-45
2021/09/27 05:35:28;;;;;;;8.13;5.55;;;;;;;33.84;19.36;94777.38;5057803;28;20443;-46
2021/09/27 05:38:11;;;;;;;7.18;5.90;;;;;;;34.12;19.40;94776.66;5044025;28;20041;-46
2021/09/27 05:41:08;;;;;;;9.00;6.00;;;;;;;34.02;19.14;94772.25;5040713;28;20056;-47
2021/09/27 05:44:04;;;;;;;7.88;6.10;;;;;;;34.51;18.68;94774.84;5058462;28;20041;-45
2021/09/27 05:46:31;;;;;;;9.35;6.07;;;;;;;34.28;18.54;94768.44;4953811;28;20347;-47
2021/09/27 05:49:37;;;;;;;9.85;5.18;;;;;;;34.76;18.35;94769.47;5057338;28;20367;-46
2021/09/27 05:52:27;;;;;;;8.02;5.60;;;;;;;34.43;18.59;94774.28;5017463;28;20057;-45
2021/09/27 05:55:01;;;;;;;7.03;5.40;;;;;;;35.02;18.08;94769.50;5057515;28;20049;-46
2021/09/27 05:57:46;;;;;;;7.32;6.22;;;;;;;34.68;18.10;94762.72;5049570;28;20052;-46
2021/09/27 06:00:48;;;;;;;7.03;5.25;;;;;;;34.87;18.38;94769.16;5039808;28;20048;-47
2021/09/27 06:03:52;;;;;;;8.07;5.88;;;;;;;35.29;18.14;94777.22;5057045;28;20049;-46
2021/09/27 06:06:37;;;;;;;10.73;5.78;;;;;;;35.54;17.53;94777.97;5056784;28;20044;-45
2021/09/27 06:09:16;;;;;;;8.90;5.93;;;;;;;35.69;17.56;94778.28;5056009;28;20057;-47
2021/09/27 06:11:58;;;;;;;7.47;5.85;;;;;;;35.78;17.59;94769.44;5057126;28;20040;-45
2021/09/27 06:14:25;;;;;;;13.20;5.88;;;;;;;35.61;17.52;94770.78;5057458;28;20079;-46
2021/09/27 06:17:04;;;;;;;10.25;6.25;;;;;;;35.33;18.01;94773.19;5039614;28;20041;-47
2021/09/27 06:20:09;;;;;;;13.48;5.90;;;;;;;35.90;17.89;94770.63;5057043;28;20045;-46
2021/09/27 06:22:53;;;;;;;10.75;6.80;;;;;;;35.97;17.78;94771.16;5056825;28;20040;-47
2021/09/27 06:25:49;;;;;;;10.55;6.53;;;;;;;36.13;17.05;94773.69;5036639;28;20048;-51
2021/09/27 06:28:31;;;;;;;9.88;6.15;;;;;;;35.99;17.51;94779.66;5044850;28;20048;-51
2021/09/27 06:31:07;;;;;;;10.13;6.10;;;;;;;36.10;17.17;94773.84;5056412;28;20045;-46
2021/09/27 06:33:56;;;;;;;10.10;6.22;;;;;;;36.28;16.76;94784.88;5038842;28;20056;-46
2021/09/27 06:36:27;;;;;;;7.20;5.35;;;;;;;36.20;17.20;94783.59;5039484;28;20045;-48
2021/09/27 06:38:57;;;;;;;10.45;5.93;;;;;;;36.24;17.13;94778.03;5038909;28;20049;-46
2021/09/27 06:41:26;;;;;;;11.00;5.05;;;;;;;36.34;17.06;94783.13;5039218;28;20053;-45
2021/09/27 06:43:54;;;;;;;8.73;5.25;;;;;;;35.71;17.43;94786.00;5056976;28;20382;-47
2021/09/27 06:46:21;;;;;;;10.82;5.38;;;;;;;36.45;17.25;94785.47;5056955;28;20041;-48
2021/09/27 06:48:49;;;;;;;5.82;4.85;;;;;;;36.49;17.33;94783.38;5056229;28;20057;-46
2021/09/27 06:51:16;;;;;;;6.63;4.68;;;;;;;36.58;17.56;94780.72;5056533;28;20040;-46
2021/09/27 06:53:44;;;;;;;7.38;5.38;;;;;;;36.22;17.70;94785.88;5056611;28;20379;-46
2021/09/27 06:56:11;;;;;;;7.18;4.55;;;;;;;36.38;17.37;94788.44;5056832;28;20075;-46
2021/09/27 06:58:38;;;;;;;6.97;4.40;;;;;;;36.98;17.05;94782.78;5056259;28;20040;-46
2021/09/27 07:01:05;;;;;;;5.60;4.03;;;;;;;36.95;16.47;94775.47;5055306;28;20072;-46
2021/09/27 07:03:33;;;;;;;4.47;4.07;;;;;;;37.48;15.65;94776.19;5056514;28;20435;-46
2021/09/27 07:06:00;;;;;;;5.38;4.20;;;;;;;37.95;15.67;94773.09;5054689;28;20060;-46
2021/09/27 07:08:27;;;;;;;8.98;4.03;;;;;;;37.48;15.82;94767.25;5043080;28;20080;-45
2021/09/27 07:10:54;;;;;;;5.93;4.22;;;;;;;38.46;15.19;94767.03;5056028;28;20044;-47
2021/09/27 07:13:22;;;;;;;5.68;4.18;;;;;;;38.35;15.50;94766.75;5056612;28;20056;-45
2021/09/27 07:15:49;;;;;;;6.90;5.20;;;;;;;39.09;14.61;94762.69;5047227;28;20056;-47
2021/09/27 07:18:16;;;;;;;7.55;5.68;;;;;;;39.37;14.35;94755.09;5042177;28;20048;-46
2021/09/27 07:20:44;;;;;;;6.32;5.40;;;;;;;39.57;14.11;94751.84;5040028;28;20057;-47
2021/09/27 07:23:11;;;;;;;8.38;6.40;;;;;;;39.51;13.97;94748.19;5055913;28;20053;-46
2021/09/27 07:25:38;;;;;;;10.73;6.90;;;;;;;39.82;13.99;94752.56;5056192;28;20055;-47
2021/09/27 07:28:05;;;;;;;13.27;7.30;;;;;;;40.35;13.81;94747.16;5054961;28;20057;-48
2021/09/27 07:30:33;;;;;;;11.65;7.22;;;;;;;40.28;13.52;94751.00;5055688;28;20056;-46
2021/09/27 07:33:00;;;;;;;7.45;6.13;;;;;;;39.88;13.81;94756.19;5055587;28;20041;-46
2021/09/27 07:35:29;;;;;;;8.60;6.15;;;;;;;38.67;15.04;94745.47;5055980;28;20041;-47
2021/09/27 07:37:57;;;;;;;16.15;6.70;;;;;;;38.21;15.50;94746.28;5055548;28;20053;-46
2021/09/27 07:40:28;;;;;;;9.38;7.05;;;;;;;37.95;15.70;94751.25;5055905;28;20049;-46
2021/09/27 07:42:55;;;;;;;8.60;6.93;;;;;;;37.89;15.59;94753.09;5055391;28;20041;-47
2021/09/27 07:45:24;;;;;;;10.00;7.45;;;;;;;37.66;16.02;94746.22;5045264;28;20376;-45
2021/09/27 07:47:51;;;;;;;8.38;6.97;;;;;;;37.71;16.07;94758.50;5036476;28;20041;-47
2021/09/27 07:50:19;;;;;;;12.02;6.60;;;;;;;37.42;16.15;94747.22;5055698;28;20052;-46
2021/09/27 07:52:46;;;;;;;7.30;6.60;;;;;;;38.38;15.76;94748.69;5054911;28;20041;-46
2021/09/27 07:55:14;;;;;;;9.00;7.13;;;;;;;39.53;14.69;94761.41;5055490;28;20448;-46
2021/09/27 07:57:41;;;;;;;9.43;6.60;;;;;;;40.19;14.07;94751.09;5048292;28;20075;-47
2021/09/27 08:00:10;;;;;;;8.15;7.35;;;;;;;39.31;14.77;94761.69;5044726;28;20057;-45
2021/09/27 08:02:41;;;;;;;16.58;7.30;;;;;;;39.30;14.67;94738.25;5050094;28;20068;-46
2021/09/27 08:05:17;;;;;;;11.32;7.00;;;;;;;39.60;14.43;94745.44;5052069;28;20056;-46
2021/09/27 08:07:44;;;;;;;7.68;6.72;;;;;;;39.82;14.41;94744.34;5035481;28;20045;-46
2021/09/27 08:10:13;;;;;;;9.95;7.25;;;;;;;39.54;14.62;94741.81;5039457;28;20042;-54
2021/09/27 08:12:40;;;;;;;11.30;6.40;;;;;;;39.68;14.75;94745.81;5049685;28;20474;-47
2021/09/27 08:15:11;;;;;;;8.60;6.75;;;;;;;39.57;14.98;94751.84;5055107;28;20083;-47
2021/09/27 08:17:38;;;;;;;10.07;7.00;;;;;;;39.67;14.61;94749.78;5046717;28;20048;-46
2021/09/27 08:20:07;;;;;;;12.48;7.43;;;;;;;39.65;14.67;94750.25;5036713;28;20055;-47
2021/09/27 08:22:35;;;;;;;8.85;6.68;;;;;;;39.59;14.73;94738.44;5053973;28;20055;-46
2021/09/27 08:25:03;;;;;;;9.52;7.90;;;;;;;39.61;14.50;94730.53;5054539;28;20048;-46
2021/09/27 08:27:30;;;;;;;10.18;7.35;;;;;;;39.59;14.69;94732.97;5054899;28;20045;-46
2021/09/27 08:29:57;;;;;;;12.10;7.18;;;;;;;39.72;14.48;94730.75;5028259;28;20406;-47
2021/09/27 08:32:25;;;;;;;9.48;6.72;;;;;;;39.96;14.69;94728.00;5043482;28;20045;-46
2021/09/27 08:34:53;;;;;;;8.73;7.57;;;;;;;39.70;14.94;94726.97;5034937;28;20045;-47
2021/09/27 08:37:22;;;;;;;11.30;7.30;;;;;;;40.13;14.49;94725.59;5050042;28;20052;-46
2021/09/27 08:39:49;;;;;;;13.52;6.90;;;;;;;40.25;14.64;94732.78;5054699;28;20049;-48
2021/09/27 08:42:24;;;;;;;8.57;6.32;;;;;;;40.20;14.32;94722.50;5054714;28;20048;-54
2021/09/27 08:44:56;;;;;;;11.23;6.80;;;;;;;39.90;14.19;94727.13;5037227;28;20044;-47
2021/09/27 08:47:42;;;;;;;7.63;5.88;;;;;;;40.03;14.33;94737.84;5033555;28;20787;-46
2021/09/27 08:50:25;;;;;;;12.35;6.57;;;;;;;40.24;14.32;94730.50;5036267;28;20059;-48
2021/09/27 08:52:52;;;;;;;8.60;5.80;;;;;;;39.93;14.48;94728.16;5051596;28;20048;-68
2021/09/27 08:55:21;;;;;;;9.35;6.03;;;;;;;40.18;14.21;94732.41;5033731;28;20045;-46
2021/09/27 08:57:48;;;;;;;6.53;5.75;;;;;;;39.93;14.45;94734.41;5034140;28;20448;-46
2021/09/27 09:00:33;;;;;;;7.90;5.80;;;;;;;40.18;14.27;94726.94;5053412;28;20060;-46
2021/09/27 09:03:15;;;;;;;8.57;6.72;;;;;;;39.17;15.08;94709.19;5054552;28;20462;-46
2021/09/27 09:05:53;;;;;;;8.90;5.50;;;;;;;39.52;14.79;94705.97;5054817;28;20041;-47
2021/09/27 09:08:44;;;;;;;7.93;5.55;;;;;;;39.08;15.47;94717.44;5036946;28;20056;-47
2021/09/27 09:11:29;;;;;;;7.78;4.93;;;;;;;39.07;15.59;94705.00;5054396;28;20049;-47
2021/09/27 09:14:21;;;;;;;5.93;5.32;;;;;;;39.08;15.29;94706.50;5054749;28;20052;-46
2021/09/27 09:16:50;;;;;;;9.60;5.63;;;;;;;38.82;15.33;94699.91;5037030;28;20493;-48
2021/09/27 09:19:22;;;;;;;10.02;5.68;;;;;;;38.98;15.58;94702.25;5054052;28;20045;-49
2021/09/27 09:21:57;;;;;;;9.02;5.72;;;;;;;38.63;16.10;94709.38;5054325;28;20052;-47
2021/09/27 09:24:39;;;;;;;9.35;5.43;;;;;;;38.63;16.36;94701.94;5036924;28;20045;-47
2021/09/27 09:27:10;;;;;;;8.88;5.70;;;;;;;38.95;15.94;94697.72;5054633;28;20515;-47
2021/09/27 09:29:39;;;;;;;8.15;6.10;;;;;;;38.99;15.48;94703.75;5047808;28;20053;-48
2021/09/27 09:32:16;;;;;;;9.48;5.90;;;;;;;39.10;15.39;94706.03;5041603;28;20045;-48
2021/09/27 09:34:43;;;;;;;9.80;6.22;;;;;;;39.54;15.08;94700.78;5054335;28;20051;-47
2021/09/27 09:37:38;;;;;;;8.63;5.63;;;;;;;39.40;15.18;94693.25;5054042;28;20481;-47
2021/09/27 09:40:27;;;;;;;7.05;5.55;;;;;;;40.14;15.00;94677.84;5051321;28;20056;-47
2021/09/27 09:43:00;;;;;;;9.48;5.80;;;;;;;40.32;14.50;94679.63;5045836;28;20384;-50
2021/09/27 09:45:31;;;;;;;7.78;5.80;;;;;;;40.74;14.34;94673.88;5034375;28;20349;-50
2021/09/27 09:48:24;;;;;;;8.68;5.30;;;;;;;39.66;15.06;94669.72;5034121;28;20052;-48
2021/09/27 09:50:59;;;;;;;9.55;4.85;;;;;;;39.84;14.67;94673.53;5034200;28;20053;-47
2021/09/27 09:53:33;;;;;;;6.47;5.28;;;;;;;39.97;14.74;94674.78;5051716;28;20345;-67
2021/09/27 09:56:07;;;;;;;11.82;5.50;;;;;;;39.60;15.13;94670.81;5036200;28;20056;-47
2021/09/27 09:58:44;;;;;;;7.88;5.40;;;;;;;39.82;15.14;94674.00;5053308;28;20041;-50
2021/09/27 10:01:34;;;;;;;7.35;4.93;;;;;;;40.37;14.54;94673.50;5034690;28;20490;-50
2021/09/27 10:04:07;;;;;;;7.03;5.22;;;;;;;39.80;14.83;94667.47;5016859;28;20079;-48
2021/09/27 10:06:41;;;;;;;11.10;4.90;;;;;;;40.51;14.24;94670.00;5016709;28;20041;-49
2021/09/27 10:09:14;;;;;;;7.72;4.93;;;;;;;40.00;14.58;94667.63;5043487;28;20075;-47
2021/09/27 10:11:49;;;;;;;7.05;4.95;;;;;;;39.85;14.35;94664.09;5039781;28;20052;-51
2021/09/27 10:14:51;;;;;;;5.57;4.65;;;;;;;40.30;13.98;94662.91;5057681;28;20335;-48
2021/09/27 10:17:34;;;;;;;6.68;4.95;;;;;;;40.84;13.71;94653.34;5038803;28;20045;-48
2021/09/27 10:20:30;;;;;;;5.80;5.15;;;;;;;40.54;14.12;94646.41;5052122;28;20060;-51
2021/09/27 10:23:01;;;;;;;7.10;4.47;;;;;;;40.69;13.93;94647.13;5054216;28;20065;-48
2021/09/27 10:25:41;;;;;;;7.13;4.90;;;;;;;40.70;13.53;94640.44;5037531;28;20052;-49
2021/09/27 10:28:11;;;;;;;7.47;4.50;;;;;;;40.58;13.65;94638.75;5037196;28;20056;-50
2021/09/27 10:30:43;;;;;;;6.25;4.45;;;;;;;40.56;13.63;94641.19;5042050;28;20456;-49
2021/09/27 10:33:20;;;;;;;5.63;4.50;;;;;;;39.74;14.59;94637.25;5050541;28;20075;-48
2021/09/27 10:35:58;;;;;;;9.88;8.32;;;;;;;40.46;13.71;94628.84;5057245;28;20368;-47
2021/09/27 10:38:42;;;;;;;7.40;6.65;;;;;;;41.12;12.87;94625.56;5056817;28;20428;-49
2021/09/27 10:41:20;;;;;;;7.40;5.50;;;;;;;40.50;13.25;94618.44;5039799;28;20049;-47
2021/09/27 10:43:49;;;;;;;6.55;4.90;;;;;;;40.27;13.46;94612.59;5034078;28;20475;-46
2021/09/27 10:46:19;;;;;;;8.03;5.53;;;;;;;39.84;14.07;94616.06;5039515;28;20487;-47
2021/09/27 10:48:53;;;;;;;5.70;4.43;;;;;;;40.13;13.82;94605.16;5056414;28;20057;-46
2021/09/27 10:51:30;;;;;;;5.53;4.18;;;;;;;39.92;14.06;94600.78;5039203;28;20067;-47
2021/09/27 10:54:03;;;;;;;5.78;4.00;;;;;;;39.88;14.08;94605.69;5056604;28;20451;-47
2021/09/27 10:56:37;;;;;;;5.47;4.18;;;;;;;40.27;13.98;94590.69;5056891;28;20041;-47
2021/09/27 10:59:13;;;;;;;5.78;3.85;;;;;;;39.49;14.61;94592.00;5055111;28;20059;-51
2021/09/27 11:01:53;;;;;;;10.02;8.13;;;;;;;39.74;14.04;94586.03;5056359;28;20057;-49
2021/09/27 11:04:23;;;;;;;6.32;5.32;;;;;;;39.93;14.00;94585.88;5055828;28;20052;-47
2021/09/27 11:06:54;;;;;;;6.82;4.35;;;;;;;39.62;13.85;94591.78;5035375;28;20042;-59
2021/09/27 11:09:29;;;;;;;8.70;4.40;;;;;;;40.23;13.71;94576.44;5026739;28;20450;-51
2021/09/27 11:12:08;;;;;;;9.30;4.50;;;;;;;39.66;14.53;94576.69;5038848;28;20063;-47
2021/09/27 11:14:43;;;;;;;5.70;3.97;;;;;;;39.75;14.52;94584.81;5056341;28;20337;-47
2021/09/27 11:17:16;;;;;;;7.05;4.50;;;;;;;40.80;13.21;94562.38;5054873;28;20112;-51
2021/09/27 11:20:06;;;;;;;6.72;4.57;;;;;;;40.41;13.80;94567.28;5054731;28;20048;-48
2021/09/27 11:22:38;;;;;;;7.77;4.17;;;;;;;39.65;14.78;94564.25;5055978;28;20368;-49
2021/09/27 11:25:11;;;;;;;8.27;4.50;;;;;;;39.84;14.65;94564.09;5036509;28;20060;-49
2021/09/27 11:27:39;;;;;;;4.93;4.35;;;;;;;40.23;14.27;94557.28;5036256;28;20049;-47
2021/09/27 11:30:25;;;;;;;8.77;4.93;;;;;;;40.19;14.04;94567.66;5031585;28;20376;-52
2021/09/27 11:32:58;;;;;;;6.50;4.25;;;;;;;39.61;14.59;94555.47;5055887;28;20048;-58
2021/09/27 11:35:31;;;;;;;6.32;4.20;;;;;;;39.92;14.10;94551.53;5038458;28;20055;-48
2021/09/27 11:38:07;;;;;;;6.28;4.75;;;;;;;40.17;14.00;94550.22;5055928;28;20376;-47
2021/09/27 11:40:40;;;;;;;6.90;4.15;;;;;;;40.13;14.47;94544.94;5049394;28;20049;-50
2021/09/27 11:43:18;;;;;;;4.97;4.40;;;;;;;40.24;13.94;94545.09;5047299;28;20059;-50
2021/09/27 11:45:50;;;;;;;8.93;4.30;;;;;;;40.11;14.67;94555.59;5038108;28;20387;-48
2021/09/27 11:48:17;;;;;;;6.57;4.22;;;;;;;40.34;14.10;94552.00;5055649;28;20080;-48
2021/09/27 11:51:03;;;;;;;7.93;4.38;;;;;;;40.25;14.53;94552.09;5055537;28;20041;-48
2021/09/27 11:53:43;;;;;;;5.93;3.88;;;;;;;40.14;14.16;94551.91;5047920;28;20053;-47
2021/09/27 11:56:40;;;;;;;9.38;3.58;;;;;;;40.30;13.91;94548.66;5034723;28;20049;-50
2021/09/27 11:59:10;;;;;;;5.97;3.55;;;;;;;39.92;13.94;94546.06;5033424;28;20037;-49
2021/09/27 12:02:07;;;;;;;7.17;3.97;;;;;;;40.04;13.89;94537.56;5042704;28;20068;-47
2021/09/27 12:05:04;;;;;;;4.93;3.53;;;;;;;39.63;14.10;94533.88;5055522;28;20272;-50
2021/09/27 12:07:55;;;;;;;5.55;4.10;;;;;;;39.80;14.07;94527.91;5062064;28;20440;-47
2021/09/27 12:10:49;;;;;;;6.63;3.58;;;;;;;40.03;14.04;94524.34;5055417;28;20088;-57
2021/09/27 12:13:26;;;;;;;4.10;3.60;;;;;;;40.04;14.12;94528.59;5015523;28;20048;-50
2021/09/27 12:15:56;;;;;;;4.60;3.63;;;;;;;40.55;14.13;94519.94;5040396;28;20045;-52
2021/09/27 12:18:43;;;;;;;5.35;3.70;;;;;;;40.64;13.48;94527.28;5035172;28;20459;-47
2021/09/27 12:21:37;;;;;;;7.05;3.58;;;;;;;40.86;13.29;94527.59;5037808;28;20065;-52
2021/09/27 12:24:12;;;;;;;7.43;3.58;;;;;;;40.17;14.02;94529.06;5052581;28;20155;-48